createdAt,value
2022-09-22T00:02:42.392Z,6.52
2022-09-22T00:05:45.378Z,6.53
2022-09-22T00:08:51.510Z,6.48
2022-09-22T00:11:56.241Z,6.49
2022-09-22T00:15:03.994Z,6.64
2022-09-22T00:18:09.371Z,6.62
2022-09-22T00:21:18.763Z,6.68
2022-09-22T00:24:24.167Z,6.70
2022-09-22T00:27:34.284Z,6.75
2022-09-22T00:30:42.518Z,6.81
2022-09-22T00:33:48.545Z,6.77
2022-09-22T00:36:52.228Z,6.76
2022-09-22T00:39:56.200Z,6.76
2022-09-22T00:43:20.571Z,6.86
2022-09-22T00:46:28.911Z,6.85
2022-09-22T00:49:39.215Z,6.81
2022-09-22T00:52:49.111Z,6.68
2022-09-22T00:55:58.582Z,6.67
2022-09-22T00:59:17.099Z,6.81
2022-09-22T01:02:22.680Z,6.64
2022-09-22T01:05:28.745Z,6.64
2022-09-22T01:08:35.991Z,6.49
2022-09-22T01:11:43.234Z,6.60
2022-09-22T01:15:10.750Z,6.63
2022-09-22T01:18:26.948Z,6.60
2022-09-22T01:21:42.887Z,6.56
2022-09-22T01:25:15.350Z,6.60
2022-09-22T01:28:38.591Z,6.58
2022-09-22T01:31:54.294Z,6.39
2022-09-22T01:35:07.471Z,6.58
2022-09-22T01:38:32.649Z,6.56
2022-09-22T01:41:54.698Z,6.65
2022-09-22T01:45:15.398Z,6.66
2022-09-22T01:48:35.468Z,6.67
2022-09-22T01:51:44.770Z,6.69
2022-09-22T01:54:54.235Z,6.71
2022-09-22T01:58:02.382Z,6.68
2022-09-22T02:01:14.582Z,6.64
2022-09-22T02:04:34.125Z,6.59
2022-09-22T02:07:43.941Z,6.60
2022-09-22T02:10:51.505Z,6.70
2022-09-22T02:14:02.968Z,6.66
2022-09-22T02:17:15.331Z,6.62
2022-09-22T02:20:22.359Z,6.62
2022-09-22T02:23:26.363Z,6.53
2022-09-22T02:26:40.386Z,6.50
2022-09-22T02:30:04.362Z,6.57
2022-09-22T02:33:08.972Z,6.63
2022-09-22T02:36:37.128Z,6.71
2022-09-22T02:39:44.855Z,6.37
2022-09-22T02:42:51.936Z,6.19
2022-09-22T02:46:01.541Z,6.39
2022-09-22T02:49:13.390Z,6.44
2022-09-22T02:52:22.569Z,6.44
2022-09-22T02:55:26.925Z,6.35
2022-09-22T02:58:30.109Z,6.15
2022-09-22T03:01:33.408Z,6.29
2022-09-22T03:04:37.513Z,6.20
2022-09-22T03:07:41.822Z,6.03
2022-09-22T03:10:46.243Z,6.17
2022-09-22T03:13:50.942Z,6.15
2022-09-22T03:16:54.861Z,6.13
2022-09-22T03:19:58.762Z,6.18
2022-09-22T03:23:03.846Z,6.17
2022-09-22T03:26:07.313Z,6.02
2022-09-22T03:29:10.946Z,5.94
2022-09-22T03:32:15.222Z,6.17
2022-09-22T03:35:19.126Z,6.14
2022-09-22T03:38:23.739Z,6.16
2022-09-22T03:41:27.789Z,6.18
2022-09-22T03:44:32.141Z,6.16
2022-09-22T03:47:36.039Z,6.25
2022-09-22T03:50:39.332Z,6.26
2022-09-22T03:53:44.320Z,6.00
2022-09-22T03:56:47.696Z,6.07
2022-09-22T03:59:51.602Z,5.99
2022-09-22T04:02:55.105Z,5.93
2022-09-22T04:05:58.753Z,5.98
2022-09-22T04:09:03.849Z,6.00
2022-09-22T04:12:08.148Z,5.99
2022-09-22T04:15:13.600Z,5.94
2022-09-22T04:18:19.846Z,6.04
2022-09-22T04:21:24.168Z,6.01
2022-09-22T04:24:29.449Z,6.05
2022-09-22T04:27:33.362Z,6.13
2022-09-22T04:30:37.672Z,5.95
2022-09-22T04:33:41.548Z,6.01
2022-09-22T04:36:44.848Z,5.96
2022-09-22T04:39:50.925Z,6.14
2022-09-22T04:42:55.089Z,6.11
2022-09-22T04:45:59.544Z,5.95
2022-09-22T04:49:04.287Z,6.00
2022-09-22T04:52:10.405Z,5.97
2022-09-22T04:55:17.026Z,6.07
2022-09-22T04:58:20.733Z,6.10
2022-09-22T05:01:27.589Z,5.97
2022-09-22T05:04:30.898Z,6.00
2022-09-22T05:07:33.995Z,5.98
2022-09-22T05:10:40.266Z,5.96
2022-09-22T05:13:43.648Z,5.80
2022-09-22T05:16:49.289Z,6.02
2022-09-22T05:19:54.962Z,5.81
2022-09-22T05:22:58.556Z,5.85
2022-09-22T05:26:03.882Z,5.77
2022-09-22T05:29:07.286Z,5.87
2022-09-22T05:32:10.212Z,5.80
2022-09-22T05:35:13.864Z,5.85
2022-09-22T05:38:18.555Z,5.91
2022-09-22T05:41:22.907Z,5.93
2022-09-22T05:44:25.838Z,6.06
2022-09-22T05:47:29.337Z,6.03
2022-09-22T05:50:34.721Z,6.08
2022-09-22T05:53:41.920Z,6.05
2022-09-22T05:56:47.888Z,6.17
2022-09-22T05:59:50.947Z,6.24
2022-09-22T06:02:54.702Z,6.26
2022-09-22T06:05:57.715Z,6.26
2022-09-22T06:09:01.546Z,6.28
2022-09-22T06:12:08.376Z,6.37
2022-09-22T06:15:11.874Z,6.40
2022-09-22T06:18:15.647Z,6.51
2022-09-22T06:21:20.922Z,6.52
2022-09-22T06:24:24.310Z,6.64
2022-09-22T06:27:28.944Z,6.73
2022-09-22T06:30:32.584Z,6.78
2022-09-22T06:33:36.049Z,6.80
2022-09-22T06:36:39.097Z,6.91
2022-09-22T06:39:41.888Z,7.01
2022-09-22T06:43:17.228Z,7.09
2022-09-22T06:46:20.804Z,7.21
2022-09-22T06:49:23.812Z,7.29
2022-09-22T06:52:27.365Z,7.37
2022-09-22T06:55:36.956Z,7.49
2022-09-22T06:59:08.373Z,7.59
2022-09-22T07:02:08.295Z,7.65
2022-09-22T07:05:11.786Z,7.73
2022-09-22T07:08:14.838Z,7.87
2022-09-22T07:11:23.665Z,7.91
2022-09-22T07:14:28.594Z,8.00
2022-09-22T07:17:32.845Z,8.12
2022-09-22T07:20:35.938Z,8.24
2022-09-22T07:23:39.568Z,8.31
2022-09-22T07:26:43.985Z,8.47
2022-09-22T07:29:48.984Z,8.56
2022-09-22T07:32:51.892Z,8.61
2022-09-22T07:36:05.021Z,8.68
2022-09-22T07:39:11.338Z,8.82
2022-09-22T07:42:14.592Z,8.89
2022-09-22T07:45:18.979Z,8.95
2022-09-22T07:48:45.737Z,9.00
2022-09-22T07:51:49.561Z,9.11
2022-09-22T07:54:52.560Z,9.17
2022-09-22T07:57:57.385Z,9.20
2022-09-22T08:01:06.436Z,9.35
2022-09-22T08:04:12.488Z,9.37
2022-09-22T08:07:15.559Z,9.50
2022-09-22T08:10:20.314Z,9.69
2022-09-22T08:13:23.732Z,9.73
2022-09-22T08:16:31.161Z,9.74
2022-09-22T08:19:34.501Z,9.90
2022-09-22T08:22:37.477Z,9.94
2022-09-22T08:25:40.433Z,10.06
2022-09-22T08:28:43.331Z,10.15
2022-09-22T08:31:48.049Z,10.29
2022-09-22T08:34:51.751Z,10.47
2022-09-22T08:37:54.648Z,10.55
2022-09-22T08:41:09.181Z,10.60
2022-09-22T08:44:22.973Z,10.67
2022-09-22T08:47:50.196Z,10.76
2022-09-22T08:51:14.608Z,10.80
2022-09-22T08:54:18.191Z,10.97
2022-09-22T08:57:36.794Z,11.03
2022-09-22T09:00:46.530Z,11.16
2022-09-22T09:03:58.724Z,11.25
2022-09-22T09:07:08.312Z,11.33
2022-09-22T09:10:32.905Z,11.51
2022-09-22T09:13:51.192Z,11.59
2022-09-22T09:17:00.023Z,11.67
2022-09-22T09:20:16.952Z,11.85
2022-09-22T09:23:24.701Z,11.86
2022-09-22T09:26:30.176Z,11.87
2022-09-22T09:29:36.962Z,11.98
2022-09-22T09:32:47.443Z,12.15
2022-09-22T09:35:54.398Z,12.31
2022-09-22T09:39:01.075Z,12.29
2022-09-22T09:42:17.684Z,12.26
2022-09-22T09:45:28.585Z,12.45
2022-09-22T09:48:41.192Z,12.30
2022-09-22T09:51:49.671Z,12.37
2022-09-22T09:54:54.423Z,12.40
2022-09-22T09:58:11.507Z,12.60
2022-09-22T10:01:16.104Z,12.74
2022-09-22T10:04:32.274Z,12.78
2022-09-22T10:07:49.309Z,12.81
2022-09-22T10:11:00.749Z,12.51
2022-09-22T10:18:42.557Z,12.30
2022-09-22T10:21:46.419Z,12.46
2022-09-22T10:25:02.018Z,12.57
2022-09-22T10:28:09.460Z,12.62
2022-09-22T10:31:22.417Z,12.62
2022-09-22T10:34:31.655Z,12.73
2022-09-22T10:37:34.936Z,12.80
2022-09-22T10:40:43.486Z,12.95
2022-09-22T10:43:50.434Z,13.02
2022-09-22T10:47:26.735Z,13.04
2022-09-22T10:50:49.220Z,13.12
2022-09-22T10:54:09.601Z,13.36
2022-09-22T10:57:24.528Z,13.36
2022-09-22T11:00:28.733Z,13.45
2022-09-22T11:03:59.088Z,13.45
2022-09-22T11:07:43.565Z,13.14
2022-09-22T11:11:11.785Z,13.25
2022-09-22T11:14:31.813Z,13.20
2022-09-22T11:18:00.767Z,13.41
2022-09-22T11:21:14.806Z,13.41
2022-09-22T11:24:46.713Z,13.43
2022-09-22T11:28:08.850Z,13.50
2022-09-22T11:31:30.982Z,13.77
2022-09-22T11:35:12.171Z,13.85
2022-09-22T11:38:37.951Z,13.83
2022-09-22T11:41:43.208Z,13.87
2022-09-22T11:44:58.889Z,13.94
2022-09-22T11:48:13.874Z,13.85
2022-09-22T11:51:36.143Z,13.46
2022-09-22T11:55:06.309Z,13.29
2022-09-22T11:58:15.537Z,13.40
2022-09-22T12:01:22.044Z,13.44
2022-09-22T12:04:37.895Z,13.41
2022-09-22T12:07:50.492Z,13.49
2022-09-22T12:10:55.885Z,13.69
2022-09-22T12:14:01.063Z,13.78
2022-09-22T12:17:10.826Z,13.72
2022-09-22T12:20:30.118Z,13.79
2022-09-22T12:23:40.501Z,14.02
2022-09-22T12:26:46.477Z,13.97
2022-09-22T12:29:56.678Z,14.29
2022-09-22T12:32:59.717Z,14.10
2022-09-22T12:36:06.895Z,14.17
2022-09-22T12:39:16.414Z,14.24
2022-09-22T12:42:22.252Z,14.14
2022-09-22T12:45:33.502Z,14.22
2022-09-22T12:48:39.112Z,14.00
2022-09-22T12:51:43.570Z,13.97
2022-09-22T12:54:47.019Z,14.07
2022-09-22T12:57:51.737Z,13.93
2022-09-22T13:00:56.572Z,13.73
2022-09-22T13:04:20.721Z,13.54
2022-09-22T13:07:37.026Z,13.35
2022-09-22T13:11:05.061Z,13.29
2022-09-22T13:14:48.304Z,13.28
2022-09-22T13:17:52.534Z,13.53
2022-09-22T13:20:55.441Z,13.78
2022-09-22T13:24:02.360Z,13.95
2022-09-22T13:27:06.057Z,13.94
2022-09-22T13:30:13.968Z,13.78
2022-09-22T13:33:22.160Z,13.63
2022-09-22T13:36:25.445Z,13.61
2022-09-22T13:39:33.282Z,13.53
2022-09-22T13:42:38.227Z,13.35
2022-09-22T13:45:41.442Z,13.28
2022-09-22T13:48:45.334Z,13.20
2022-09-22T13:51:55.729Z,13.13
2022-09-22T13:55:09.891Z,13.18
2022-09-22T13:58:14.818Z,13.31
2022-09-22T14:01:20.614Z,13.49
2022-09-22T14:04:25.740Z,13.46
2022-09-22T14:07:31.352Z,13.53
2022-09-22T14:10:36.744Z,13.63
2022-09-22T14:13:42.693Z,13.67
2022-09-22T14:16:50.172Z,13.73
2022-09-22T14:19:57.731Z,13.70
2022-09-22T14:23:01.973Z,13.71
2022-09-22T14:26:24.834Z,13.70
2022-09-22T14:29:36.255Z,13.59
2022-09-22T14:32:44.530Z,13.60
2022-09-22T14:35:49.608Z,13.50
2022-09-22T14:39:10.047Z,13.50
2022-09-22T14:42:24.066Z,13.46
2022-09-22T14:45:32.285Z,13.37
2022-09-22T14:48:39.418Z,13.28
2022-09-22T14:51:50.349Z,13.20
2022-09-22T14:54:57.055Z,13.15
2022-09-22T14:58:06.592Z,13.24
2022-09-22T15:01:39.210Z,13.37
2022-09-22T15:04:47.116Z,13.46
2022-09-22T15:07:49.926Z,13.47
2022-09-22T15:10:54.162Z,13.50
2022-09-22T15:13:58.342Z,13.46
2022-09-22T15:17:21.590Z,13.42
2022-09-22T15:20:28.970Z,13.39
2022-09-22T15:23:37.375Z,13.33
2022-09-22T15:26:41.927Z,13.27
2022-09-22T15:29:46.237Z,13.24
2022-09-22T15:32:50.064Z,13.24
2022-09-22T15:35:56.536Z,13.26
2022-09-22T15:39:02.027Z,13.23
2022-09-22T15:42:08.492Z,13.18
2022-09-22T15:45:17.438Z,13.14
2022-09-22T15:48:27.717Z,13.10
2022-09-22T15:51:31.658Z,13.07
2022-09-22T15:54:34.851Z,13.02
2022-09-22T15:57:37.681Z,12.97
2022-09-22T16:00:42.307Z,12.96
2022-09-22T16:03:45.795Z,12.94
2022-09-22T16:06:52.737Z,12.91
2022-09-22T16:09:55.614Z,12.89
2022-09-22T16:12:59.216Z,12.81
2022-09-22T16:16:04.339Z,12.72
2022-09-22T16:19:07.939Z,12.64
2022-09-22T16:22:10.850Z,12.56
2022-09-22T16:25:15.638Z,12.50
2022-09-22T16:28:21.027Z,12.43
2022-09-22T16:31:26.061Z,12.38
2022-09-22T16:34:31.002Z,12.31
2022-09-22T16:37:36.056Z,12.21
2022-09-22T16:40:43.548Z,12.10
2022-09-22T16:43:54.924Z,12.02
2022-09-22T16:47:05.414Z,12.00
2022-09-22T16:50:10.507Z,11.92
2022-09-22T16:53:21.511Z,12.02
2022-09-22T16:56:39.288Z,11.81
2022-09-22T16:59:46.007Z,11.61
2022-09-22T17:02:55.516Z,11.53
2022-09-22T17:06:07.200Z,11.42
2022-09-22T17:09:40.067Z,11.44
2022-09-22T17:12:48.375Z,11.44
2022-09-22T17:16:10.387Z,11.26
2022-09-22T17:19:18.252Z,11.35
2022-09-22T17:22:43.897Z,11.24
2022-09-22T17:25:48.160Z,11.32
2022-09-22T17:28:54.049Z,11.25
2022-09-22T17:32:11.435Z,11.24
2022-09-22T17:35:25.423Z,11.07
2022-09-22T17:38:53.729Z,10.86
2022-09-22T17:42:05.035Z,10.93
2022-09-22T17:45:19.923Z,10.84
2022-09-22T17:48:55.797Z,10.68
2022-09-22T17:52:57.895Z,10.60
2022-09-22T17:56:31.018Z,10.43
2022-09-22T17:59:54.277Z,10.41
2022-09-22T18:03:07.436Z,10.42
2022-09-22T18:06:16.063Z,10.11
2022-09-22T18:09:40.192Z,10.06
2022-09-22T18:12:57.255Z,9.96
2022-09-22T18:16:38.237Z,9.48
2022-09-22T18:20:19.494Z,9.31
2022-09-22T18:23:34.210Z,9.17
2022-09-22T18:26:45.160Z,9.27
2022-09-22T18:29:54.415Z,9.16
2022-09-22T18:33:09.150Z,9.18
2022-09-22T18:36:16.045Z,9.14
2022-09-22T18:39:21.442Z,8.95
2022-09-22T18:42:27.750Z,8.71
2022-09-22T18:45:32.296Z,8.90
2022-09-22T18:48:36.048Z,9.02
2022-09-22T18:51:45.122Z,9.00
2022-09-22T18:54:48.813Z,8.60
2022-09-22T18:57:54.619Z,8.40
2022-09-22T19:00:57.828Z,8.23
2022-09-22T19:04:01.496Z,8.11
2022-09-22T19:07:22.349Z,7.78
2022-09-22T19:10:25.565Z,7.69
2022-09-22T19:13:31.339Z,7.70
2022-09-22T19:16:34.796Z,7.67
2022-09-22T19:19:42.248Z,7.67
2022-09-22T19:22:46.987Z,7.76
2022-09-22T19:25:51.711Z,7.60
2022-09-22T19:28:56.047Z,7.55
2022-09-22T19:31:59.977Z,7.69
2022-09-22T19:35:03.431Z,7.70
2022-09-22T19:38:12.898Z,7.53
2022-09-22T19:41:16.469Z,7.65
2022-09-22T19:44:23.205Z,7.55
2022-09-22T19:47:26.149Z,7.71
2022-09-22T19:50:29.390Z,7.62
2022-09-22T19:53:32.581Z,7.70
2022-09-22T19:56:35.966Z,7.63
2022-09-22T19:59:40.572Z,7.62
2022-09-22T20:02:44.279Z,7.60
2022-09-22T20:05:47.521Z,7.66
2022-09-22T20:08:54.126Z,7.65
2022-09-22T20:12:01.488Z,7.55
2022-09-22T20:15:06.917Z,7.64
2022-09-22T20:18:10.058Z,7.59
2022-09-22T20:21:15.850Z,7.63
2022-09-22T20:24:21.303Z,7.51
2022-09-22T20:27:26.042Z,7.44
2022-09-22T20:30:30.324Z,7.49
2022-09-22T20:33:33.416Z,7.45
2022-09-22T20:36:37.240Z,7.37
2022-09-22T20:39:40.616Z,7.27
2022-09-22T20:42:45.107Z,7.25
2022-09-22T20:45:49.395Z,7.39
2022-09-22T20:48:55.651Z,7.34
2022-09-22T20:51:59.691Z,7.18
2022-09-22T20:55:02.658Z,7.06
2022-09-22T20:58:05.869Z,7.04
2022-09-22T21:01:12.027Z,6.99
2022-09-22T21:04:16.352Z,6.99
2022-09-22T21:07:19.823Z,7.02
2022-09-22T21:10:36.655Z,6.99
2022-09-22T21:13:39.577Z,6.80
2022-09-22T21:16:43.893Z,6.79
2022-09-22T21:19:46.889Z,6.82
2022-09-22T21:22:49.813Z,6.81
2022-09-22T21:25:59.931Z,6.77
2022-09-22T21:29:02.772Z,6.73
2022-09-22T21:32:07.442Z,6.56
2022-09-22T21:35:10.661Z,6.71
2022-09-22T21:38:14.915Z,6.68
2022-09-22T21:41:20.423Z,6.58
2022-09-22T21:44:23.969Z,6.39
2022-09-22T21:47:28.137Z,6.44
2022-09-22T21:50:30.955Z,6.55
2022-09-22T21:53:34.821Z,6.45
2022-09-22T21:56:37.701Z,6.42
2022-09-22T21:59:40.769Z,6.34
2022-09-22T22:03:02.215Z,6.40
2022-09-22T22:06:10.456Z,6.30
2022-09-22T22:09:15.897Z,6.38
2022-09-22T22:12:18.723Z,6.29
2022-09-22T22:15:22.367Z,6.23
2022-09-22T22:18:26.547Z,6.24
2022-09-22T22:21:32.022Z,6.32
2022-09-22T22:24:40.243Z,6.18
2022-09-22T22:27:45.666Z,6.27
2022-09-22T22:30:48.694Z,6.16
2022-09-22T22:33:53.334Z,6.19
2022-09-22T22:36:58.001Z,6.16
2022-09-22T22:40:01.362Z,6.15
2022-09-22T22:43:04.176Z,6.14
2022-09-22T22:46:08.406Z,6.13
2022-09-22T22:49:12.694Z,6.13
2022-09-22T22:52:15.457Z,6.03
2022-09-22T22:55:18.227Z,6.16
2022-09-22T22:58:22.027Z,6.03
2022-09-22T23:01:26.951Z,6.14
2022-09-22T23:04:31.343Z,6.04
2022-09-22T23:07:34.365Z,6.02
2022-09-22T23:10:37.746Z,6.03
2022-09-22T23:13:41.806Z,5.87
2022-09-22T23:16:46.814Z,5.87
2022-09-22T23:19:51.469Z,5.85
2022-09-22T23:22:54.324Z,5.86
2022-09-22T23:25:57.494Z,5.89
2022-09-22T23:29:01.580Z,5.87
2022-09-22T23:32:04.622Z,5.89
2022-09-22T23:35:09.331Z,5.79
2022-09-22T23:38:17.280Z,5.84
2022-09-22T23:41:21.365Z,5.76
2022-09-22T23:44:24.139Z,5.85
2022-09-22T23:47:26.941Z,5.74
2022-09-22T23:50:31.064Z,5.68
2022-09-22T23:53:38.666Z,5.78
2022-09-22T23:56:41.550Z,5.82
2022-09-22T23:59:44.435Z,5.82
